sensor_id;sensor_type;location;lat;lon;timestamp;pressure;altitude;pressure_sealevel;temperature;humidity
54948;BME280;41113;41.882;12.530;2023-05-21T00:02:08;100408.69;;;17.54;69.76
54948;BME280;41113;41.882;12.530;2023-05-21T00:04:36;100411.59;;;17.53;69.61
54948;BME280;41113;41.882;12.530;2023-05-21T00:07:02;100409.06;;;17.51;69.30
54948;BME280;41113;41.882;12.530;2023-05-21T00:09:28;100405.78;;;17.56;70.23
54948;BME280;41113;41.882;12.530;2023-05-21T00:11:53;100407.00;;;17.53;69.72
54948;BME280;41113;41.882;12.530;2023-05-21T00:14:19;100401.56;;;17.53;70.00
54948;BME280;41113;41.882;12.530;2023-05-21T00:16:44;100390.72;;;17.53;69.65
54948;BME280;41113;41.882;12.530;2023-05-21T00:19:11;100393.16;;;17.48;69.75
54948;BME280;41113;41.882;12.530;2023-05-21T00:21:36;100391.47;;;17.47;71.28
54948;BME280;41113;41.882;12.530;2023-05-21T00:24:02;100391.84;;;17.44;71.06
54948;BME280;41113;41.882;12.530;2023-05-21T00:26:27;100387.81;;;17.40;71.48
54948;BME280;41113;41.882;12.530;2023-05-21T00:28:53;100391.75;;;17.37;72.25
54948;BME280;41113;41.882;12.530;2023-05-21T00:31:18;100387.16;;;17.38;72.51
54948;BME280;41113;41.882;12.530;2023-05-21T00:33:43;100385.50;;;17.37;72.81
54948;BME280;41113;41.882;12.530;2023-05-21T00:36:08;100382.13;;;17.35;73.21
54948;BME280;41113;41.882;12.530;2023-05-21T00:38:38;100383.34;;;17.32;73.73
54948;BME280;41113;41.882;12.530;2023-05-21T00:41:03;100384.19;;;17.33;72.99
54948;BME280;41113;41.882;12.530;2023-05-21T00:43:29;100382.31;;;17.33;72.92
54948;BME280;41113;41.882;12.530;2023-05-21T00:45:54;100393.75;;;17.29;73.40
54948;BME280;41113;41.882;12.530;2023-05-21T00:48:21;100389.34;;;17.28;73.71
54948;BME280;41113;41.882;12.530;2023-05-21T00:50:47;100387.34;;;17.22;74.11
54948;BME280;41113;41.882;12.530;2023-05-21T00:53:16;100384.28;;;17.25;74.27
54948;BME280;41113;41.882;12.530;2023-05-21T00:55:44;100382.94;;;17.21;74.34
54948;BME280;41113;41.882;12.530;2023-05-21T00:58:09;100390.63;;;17.17;75.08
54948;BME280;41113;41.882;12.530;2023-05-21T01:00:35;100389.31;;;17.13;75.48
54948;BME280;41113;41.882;12.530;2023-05-21T01:03:03;100393.53;;;17.16;75.40
54948;BME280;41113;41.882;12.530;2023-05-21T01:05:29;100389.78;;;17.17;75.21
54948;BME280;41113;41.882;12.530;2023-05-21T01:07:55;100390.81;;;17.16;75.62
54948;BME280;41113;41.882;12.530;2023-05-21T01:10:22;100394.56;;;17.15;76.21
54948;BME280;41113;41.882;12.530;2023-05-21T01:12:48;100390.91;;;17.07;76.96
54948;BME280;41113;41.882;12.530;2023-05-21T01:15:14;100392.03;;;16.98;77.02
54948;BME280;41113;41.882;12.530;2023-05-21T01:17:40;100394.78;;;16.90;77.66
54948;BME280;41113;41.882;12.530;2023-05-21T01:20:06;100390.09;;;16.84;79.34
54948;BME280;41113;41.882;12.530;2023-05-21T01:22:37;100391.03;;;16.76;80.32
54948;BME280;41113;41.882;12.530;2023-05-21T01:25:06;100393.16;;;16.66;81.55
54948;BME280;41113;41.882;12.530;2023-05-21T01:27:31;100383.16;;;16.67;80.77
54948;BME280;41113;41.882;12.530;2023-05-21T01:29:57;100388.94;;;16.64;81.88
54948;BME280;41113;41.882;12.530;2023-05-21T01:35:11;100385.56;;;16.62;81.68
54948;BME280;41113;41.882;12.530;2023-05-21T01:37:44;100374.22;;;16.58;82.60
54948;BME280;41113;41.882;12.530;2023-05-21T01:40:17;100385.94;;;16.59;83.70
54948;BME280;41113;41.882;12.530;2023-05-21T01:42:46;100381.56;;;16.49;85.04
54948;BME280;41113;41.882;12.530;2023-05-21T01:45:13;100381.56;;;16.49;85.23
54948;BME280;41113;41.882;12.530;2023-05-21T01:47:40;100380.25;;;16.45;88.54
54948;BME280;41113;41.882;12.530;2023-05-21T01:50:09;100377.88;;;16.28;90.90
54948;BME280;41113;41.882;12.530;2023-05-21T01:52:35;100372.56;;;16.34;88.51
54948;BME280;41113;41.882;12.530;2023-05-21T01:55:01;100366.78;;;16.37;88.26
54948;BME280;41113;41.882;12.530;2023-05-21T01:57:27;100371.47;;;16.43;88.56
54948;BME280;41113;41.882;12.530;2023-05-21T01:59:53;100374.75;;;16.54;86.81
54948;BME280;41113;41.882;12.530;2023-05-21T02:02:20;100374.84;;;16.45;88.31
54948;BME280;41113;41.882;12.530;2023-05-21T02:04:46;100372.56;;;16.34;87.87
54948;BME280;41113;41.882;12.530;2023-05-21T02:07:11;100369.78;;;16.42;87.08
54948;BME280;41113;41.882;12.530;2023-05-21T02:09:39;100370.84;;;16.56;86.07
54948;BME280;41113;41.882;12.530;2023-05-21T02:12:05;100368.91;;;16.65;85.55
54948;BME280;41113;41.882;12.530;2023-05-21T02:14:31;100366.75;;;16.60;86.72
54948;BME280;41113;41.882;12.530;2023-05-21T02:17:00;100358.31;;;16.55;86.54
54948;BME280;41113;41.882;12.530;2023-05-21T02:19:26;100360.50;;;16.60;85.37
54948;BME280;41113;41.882;12.530;2023-05-21T02:21:51;100360.91;;;16.48;84.02
54948;BME280;41113;41.882;12.530;2023-05-21T02:24:17;100357.09;;;16.58;83.77
54948;BME280;41113;41.882;12.530;2023-05-21T02:26:42;100356.63;;;16.54;83.75
54948;BME280;41113;41.882;12.530;2023-05-21T02:29:08;100360.34;;;16.53;84.71
54948;BME280;41113;41.882;12.530;2023-05-21T02:31:33;100353.72;;;16.56;84.18
54948;BME280;41113;41.882;12.530;2023-05-21T02:33:58;100349.34;;;16.55;84.92
54948;BME280;41113;41.882;12.530;2023-05-21T02:36:24;100344.56;;;16.57;84.74
54948;BME280;41113;41.882;12.530;2023-05-21T02:38:50;100338.13;;;16.58;85.18
54948;BME280;41113;41.882;12.530;2023-05-21T02:41:15;100339.50;;;16.54;85.17
54948;BME280;41113;41.882;12.530;2023-05-21T02:43:41;100334.47;;;16.50;85.34
54948;BME280;41113;41.882;12.530;2023-05-21T02:46:06;100341.56;;;16.52;85.26
54948;BME280;41113;41.882;12.530;2023-05-21T02:48:32;100339.50;;;16.54;84.94
54948;BME280;41113;41.882;12.530;2023-05-21T02:50:57;100352.03;;;16.55;85.42
54948;BME280;41113;41.882;12.530;2023-05-21T02:53:23;100349.03;;;16.49;86.54
54948;BME280;41113;41.882;12.530;2023-05-21T02:55:48;100351.47;;;16.44;87.58
54948;BME280;41113;41.882;12.530;2023-05-21T02:58:14;100352.84;;;16.40;89.16
54948;BME280;41113;41.882;12.530;2023-05-21T03:00:39;100354.50;;;16.27;91.13
54948;BME280;41113;41.882;12.530;2023-05-21T03:03:05;100348.47;;;16.16;92.45
54948;BME280;41113;41.882;12.530;2023-05-21T03:05:31;100349.31;;;16.17;92.87
54948;BME280;41113;41.882;12.530;2023-05-21T03:07:56;100346.59;;;16.17;91.71
54948;BME280;41113;41.882;12.530;2023-05-21T03:10:21;100352.78;;;16.26;91.00
54948;BME280;41113;41.882;12.530;2023-05-21T03:12:47;100335.00;;;16.31;89.95
54948;BME280;41113;41.882;12.530;2023-05-21T03:15:12;100349.19;;;16.33;90.03
54948;BME280;41113;41.882;12.530;2023-05-21T03:17:40;100350.03;;;16.34;89.42
54948;BME280;41113;41.882;12.530;2023-05-21T03:20:07;100356.38;;;16.26;90.93
54948;BME280;41113;41.882;12.530;2023-05-21T03:22:33;100364.25;;;16.13;92.71
54948;BME280;41113;41.882;12.530;2023-05-21T03:24:59;100362.31;;;15.99;94.95
54948;BME280;41113;41.882;12.530;2023-05-21T03:27:26;100366.25;;;15.88;96.99
54948;BME280;41113;41.882;12.530;2023-05-21T03:29:51;100371.13;;;15.93;97.46
54948;BME280;41113;41.882;12.530;2023-05-21T03:32:19;100366.72;;;16.00;95.76
54948;BME280;41113;41.882;12.530;2023-05-21T03:34:44;100364.84;;;16.00;96.72
54948;BME280;41113;41.882;12.530;2023-05-21T03:37:09;100361.31;;;15.92;96.99
54948;BME280;41113;41.882;12.530;2023-05-21T03:39:35;100367.47;;;15.85;97.94
54948;BME280;41113;41.882;12.530;2023-05-21T03:42:00;100362.16;;;15.92;97.85
54948;BME280;41113;41.882;12.530;2023-05-21T03:44:25;100361.59;;;16.05;95.96
54948;BME280;41113;41.882;12.530;2023-05-21T03:46:52;100364.59;;;16.10;95.34
54948;BME280;41113;41.882;12.530;2023-05-21T03:49:17;100365.09;;;16.13;95.13
54948;BME280;41113;41.882;12.530;2023-05-21T03:51:42;100366.59;;;16.16;94.61
54948;BME280;41113;41.882;12.530;2023-05-21T03:54:08;100366.28;;;16.11;95.82
54948;BME280;41113;41.882;12.530;2023-05-21T03:56:33;100359.66;;;16.13;95.23
54948;BME280;41113;41.882;12.530;2023-05-21T03:58:58;100361.09;;;16.24;94.17
54948;BME280;41113;41.882;12.530;2023-05-21T04:01:24;100362.09;;;16.31;93.46
54948;BME280;41113;41.882;12.530;2023-05-21T04:03:49;100364.06;;;16.37;93.22
54948;BME280;41113;41.882;12.530;2023-05-21T04:06:14;100367.50;;;16.31;94.96
54948;BME280;41113;41.882;12.530;2023-05-21T04:08:41;100367.13;;;16.34;93.75
54948;BME280;41113;41.882;12.530;2023-05-21T04:11:06;100372.94;;;16.31;94.03
54948;BME280;41113;41.882;12.530;2023-05-21T04:13:32;100366.66;;;16.08;96.06
54948;BME280;41113;41.882;12.530;2023-05-21T04:15:57;100372.97;;;16.00;97.53
54948;BME280;41113;41.882;12.530;2023-05-21T04:18:22;100370.03;;;16.10;96.93
54948;BME280;41113;41.882;12.530;2023-05-21T04:20:50;100369.91;;;16.03;96.64
54948;BME280;41113;41.882;12.530;2023-05-21T04:23:15;100377.47;;;16.08;96.31
54948;BME280;41113;41.882;12.530;2023-05-21T04:25:40;100372.50;;;15.97;97.00
54948;BME280;41113;41.882;12.530;2023-05-21T04:28:06;100373.84;;;15.93;97.56
54948;BME280;41113;41.882;12.530;2023-05-21T04:30:32;100375.19;;;15.97;97.02
54948;BME280;41113;41.882;12.530;2023-05-21T04:33:00;100377.91;;;15.97;96.29
54948;BME280;41113;41.882;12.530;2023-05-21T04:35:25;100378.78;;;15.89;96.44
54948;BME280;41113;41.882;12.530;2023-05-21T04:37:51;100374.69;;;15.93;96.47
54948;BME280;41113;41.882;12.530;2023-05-21T04:40:19;100371.47;;;15.98;96.48
54948;BME280;41113;41.882;12.530;2023-05-21T04:42:48;100375.56;;;15.94;96.59
54948;BME280;41113;41.882;12.530;2023-05-21T04:45:15;100379.97;;;15.86;97.48
54948;BME280;41113;41.882;12.530;2023-05-21T04:47:41;100374.44;;;15.80;98.08
54948;BME280;41113;41.882;12.530;2023-05-21T04:50:07;100367.69;;;15.76;97.88
54948;BME280;41113;41.882;12.530;2023-05-21T04:52:32;100372.63;;;15.72;97.67
54948;BME280;41113;41.882;12.530;2023-05-21T04:54:59;100373.59;;;15.79;97.18
54948;BME280;41113;41.882;12.530;2023-05-21T04:57:25;100370.13;;;15.94;96.42
54948;BME280;41113;41.882;12.530;2023-05-21T04:59:52;100372.13;;;16.00;96.31
54948;BME280;41113;41.882;12.530;2023-05-21T05:02:18;100379.91;;;16.03;96.58
54948;BME280;41113;41.882;12.530;2023-05-21T05:04:43;100382.91;;;16.08;95.77
54948;BME280;41113;41.882;12.530;2023-05-21T05:07:09;100377.72;;;16.21;94.96
54948;BME280;41113;41.882;12.530;2023-05-21T05:09:34;100383.13;;;16.21;94.04
54948;BME280;41113;41.882;12.530;2023-05-21T05:11:59;100391.41;;;16.28;93.37
54948;BME280;41113;41.882;12.530;2023-05-21T05:14:25;100387.50;;;16.30;91.80
54948;BME280;41113;41.882;12.530;2023-05-21T05:16:50;100384.78;;;16.30;89.58
54948;BME280;41113;41.882;12.530;2023-05-21T05:19:16;100398.34;;;16.30;89.21
54948;BME280;41113;41.882;12.530;2023-05-21T05:21:41;100396.66;;;16.29;89.12
54948;BME280;41113;41.882;12.530;2023-05-21T05:24:07;100392.56;;;16.33;89.74
54948;BME280;41113;41.882;12.530;2023-05-21T05:26:32;100402.06;;;16.29;89.14
54948;BME280;41113;41.882;12.530;2023-05-21T05:28:57;100403.41;;;16.33;88.48
54948;BME280;41113;41.882;12.530;2023-05-21T05:31:23;100397.97;;;16.33;88.02
54948;BME280;41113;41.882;12.530;2023-05-21T05:33:48;100403.03;;;16.36;85.06
54948;BME280;41113;41.882;12.530;2023-05-21T05:36:14;100393.81;;;16.45;84.57
54948;BME280;41113;41.882;12.530;2023-05-21T05:38:39;100394.94;;;16.51;83.32
54948;BME280;41113;41.882;12.530;2023-05-21T05:41:04;100386.25;;;16.56;83.55
54948;BME280;41113;41.882;12.530;2023-05-21T05:43:30;100383.38;;;16.57;81.93
54948;BME280;41113;41.882;12.530;2023-05-21T05:45:55;100388.63;;;16.59;82.46
54948;BME280;41113;41.882;12.530;2023-05-21T05:48:21;100396.88;;;16.65;82.86
54948;BME280;41113;41.882;12.530;2023-05-21T05:50:46;100390.63;;;16.65;82.84
54948;BME280;41113;41.882;12.530;2023-05-21T05:53:12;100385.94;;;16.59;82.96
54948;BME280;41113;41.882;12.530;2023-05-21T05:55:38;100395.59;;;16.53;84.00
54948;BME280;41113;41.882;12.530;2023-05-21T05:58:04;100387.38;;;16.46;84.63
54948;BME280;41113;41.882;12.530;2023-05-21T06:00:29;100390.72;;;16.48;85.14
54948;BME280;41113;41.882;12.530;2023-05-21T06:02:55;100387.25;;;16.63;84.71
54948;BME280;41113;41.882;12.530;2023-05-21T06:05:21;100389.28;;;16.61;84.49
54948;BME280;41113;41.882;12.530;2023-05-21T06:07:46;100375.56;;;16.62;84.43
54948;BME280;41113;41.882;12.530;2023-05-21T06:10:12;100377.84;;;16.73;84.37
54948;BME280;41113;41.882;12.530;2023-05-21T06:12:37;100380.38;;;16.75;83.04
54948;BME280;41113;41.882;12.530;2023-05-21T06:15:04;100382.91;;;16.76;82.18
54948;BME280;41113;41.882;12.530;2023-05-21T06:17:29;100380.50;;;16.96;82.58
54948;BME280;41113;41.882;12.530;2023-05-21T06:19:55;100373.50;;;17.17;81.93
54948;BME280;41113;41.882;12.530;2023-05-21T06:22:21;100378.75;;;17.33;81.49
54948;BME280;41113;41.882;12.530;2023-05-21T06:24:46;100378.47;;;17.42;81.14
54948;BME280;41113;41.882;12.530;2023-05-21T06:27:12;100379.38;;;17.50;81.65
54948;BME280;41113;41.882;12.530;2023-05-21T06:29:37;100377.44;;;17.43;81.95
54948;BME280;41113;41.882;12.530;2023-05-21T06:32:05;100387.16;;;17.38;82.04
54948;BME280;41113;41.882;12.530;2023-05-21T06:34:31;100382.09;;;17.50;81.95
54948;BME280;41113;41.882;12.530;2023-05-21T06:36:56;100380.41;;;17.63;81.34
54948;BME280;41113;41.882;12.530;2023-05-21T06:39:25;100374.53;;;17.75;81.25
54948;BME280;41113;41.882;12.530;2023-05-21T06:41:51;100387.66;;;17.71;81.16
54948;BME280;41113;41.882;12.530;2023-05-21T06:44:16;100385.59;;;17.58;80.93
54948;BME280;41113;41.882;12.530;2023-05-21T06:46:42;100384.63;;;17.51;81.13
54948;BME280;41113;41.882;12.530;2023-05-21T06:49:08;100384.63;;;17.51;81.59
54948;BME280;41113;41.882;12.530;2023-05-21T06:51:33;100381.19;;;17.57;81.40
54948;BME280;41113;41.882;12.530;2023-05-21T06:53:58;100380.91;;;17.67;79.89
54948;BME280;41113;41.882;12.530;2023-05-21T06:56:24;100378.34;;;17.65;77.34
54948;BME280;41113;41.882;12.530;2023-05-21T06:58:50;100382.66;;;17.75;77.91
54948;BME280;41113;41.882;12.530;2023-05-21T07:01:16;100381.13;;;17.87;77.90
54948;BME280;41113;41.882;12.530;2023-05-21T07:03:41;100374.25;;;18.06;77.53
54948;BME280;41113;41.882;12.530;2023-05-21T07:06:06;100375.97;;;18.28;76.64
54948;BME280;41113;41.882;12.530;2023-05-21T07:08:32;100379.19;;;18.38;75.77
54948;BME280;41113;41.882;12.530;2023-05-21T07:10:57;100374.34;;;18.55;73.90
54948;BME280;41113;41.882;12.530;2023-05-21T07:13:23;100376.28;;;18.61;73.61
54948;BME280;41113;41.882;12.530;2023-05-21T07:15:48;100388.66;;;18.63;73.97
54948;BME280;41113;41.882;12.530;2023-05-21T07:18:13;100391.16;;;18.86;74.51
54948;BME280;41113;41.882;12.530;2023-05-21T07:20:39;100381.06;;;18.80;74.06
54948;BME280;41113;41.882;12.530;2023-05-21T07:23:04;100387.78;;;18.84;75.02
54948;BME280;41113;41.882;12.530;2023-05-21T07:25:30;100383.38;;;18.83;75.85
54948;BME280;41113;41.882;12.530;2023-05-21T07:27:55;100385.69;;;19.14;75.58
54948;BME280;41113;41.882;12.530;2023-05-21T07:30:21;100381.38;;;19.54;75.02
54948;BME280;41113;41.882;12.530;2023-05-21T07:32:46;100390.88;;;19.72;74.76
54948;BME280;41113;41.882;12.530;2023-05-21T07:35:11;100383.44;;;19.52;75.14
54948;BME280;41113;41.882;12.530;2023-05-21T07:37:37;100376.69;;;19.48;75.82
54948;BME280;41113;41.882;12.530;2023-05-21T07:40:02;100380.59;;;19.67;75.34
54948;BME280;41113;41.882;12.530;2023-05-21T07:42:29;100381.13;;;19.97;74.73
54948;BME280;41113;41.882;12.530;2023-05-21T07:44:54;100377.06;;;20.41;73.47
54948;BME280;41113;41.882;12.530;2023-05-21T07:47:20;100387.78;;;20.75;71.96
54948;BME280;41113;41.882;12.530;2023-05-21T07:49:47;100386.28;;;21.12;71.19
54948;BME280;41113;41.882;12.530;2023-05-21T07:52:13;100386.66;;;21.56;69.97
54948;BME280;41113;41.882;12.530;2023-05-21T07:54:38;100377.41;;;21.57;69.13
54948;BME280;41113;41.882;12.530;2023-05-21T07:57:03;100378.88;;;21.46;69.23
54948;BME280;41113;41.882;12.530;2023-05-21T07:59:29;100382.44;;;21.60;68.76
54948;BME280;41113;41.882;12.530;2023-05-21T08:01:54;100384.75;;;21.56;67.09
54948;BME280;41113;41.882;12.530;2023-05-21T08:04:20;100382.13;;;21.23;68.95
54948;BME280;41113;41.882;12.530;2023-05-21T08:06:46;100386.91;;;21.08;68.81
54948;BME280;41113;41.882;12.530;2023-05-21T08:09:12;100375.78;;;21.23;69.67
54948;BME280;41113;41.882;12.530;2023-05-21T08:11:38;100374.97;;;21.02;69.54
54948;BME280;41113;41.882;12.530;2023-05-21T08:14:03;100358.59;;;20.89;68.80
54948;BME280;41113;41.882;12.530;2023-05-21T08:16:29;100356.03;;;21.21;67.86
54948;BME280;41113;41.882;12.530;2023-05-21T08:18:54;100350.16;;;21.30;66.71
54948;BME280;41113;41.882;12.530;2023-05-21T08:21:19;100360.44;;;21.35;65.45
54948;BME280;41113;41.882;12.530;2023-05-21T08:23:45;100362.78;;;21.25;64.09
54948;BME280;41113;41.882;12.530;2023-05-21T08:26:11;100364.25;;;20.94;66.55
54948;BME280;41113;41.882;12.530;2023-05-21T08:28:37;100365.31;;;21.00;65.79
54948;BME280;41113;41.882;12.530;2023-05-21T08:31:02;100362.53;;;21.13;64.16
54948;BME280;41113;41.882;12.530;2023-05-21T08:33:28;100363.19;;;21.28;63.56
54948;BME280;41113;41.882;12.530;2023-05-21T08:35:53;100362.31;;;21.34;63.49
54948;BME280;41113;41.882;12.530;2023-05-21T08:38:19;100372.44;;;21.27;63.34
54948;BME280;41113;41.882;12.530;2023-05-21T08:40:50;100368.84;;;21.20;64.78
54948;BME280;41113;41.882;12.530;2023-05-21T08:43:16;100355.63;;;21.30;64.93
54948;BME280;41113;41.882;12.530;2023-05-21T08:45:44;100348.81;;;21.46;64.00
54948;BME280;41113;41.882;12.530;2023-05-21T08:48:10;100360.63;;;21.47;63.38
54948;BME280;41113;41.882;12.530;2023-05-21T08:50:39;100353.91;;;21.36;63.03
54948;BME280;41113;41.882;12.530;2023-05-21T08:53:05;100356.25;;;21.19;62.36
54948;BME280;41113;41.882;12.530;2023-05-21T08:55:31;100354.59;;;21.25;63.58
54948;BME280;41113;41.882;12.530;2023-05-21T08:57:56;100348.22;;;21.37;63.73
54948;BME280;41113;41.882;12.530;2023-05-21T09:00:22;100353.34;;;21.72;63.21
54948;BME280;41113;41.882;12.530;2023-05-21T09:02:49;100361.19;;;22.13;62.64
54948;BME280;41113;41.882;12.530;2023-05-21T09:05:15;100362.63;;;22.47;62.20
54948;BME280;41113;41.882;12.530;2023-05-21T09:07:58;100357.78;;;22.49;60.28
54948;BME280;41113;41.882;12.530;2023-05-21T09:10:30;100361.59;;;22.48;60.90
54948;BME280;41113;41.882;12.530;2023-05-21T09:12:58;100359.63;;;22.55;61.28
54948;BME280;41113;41.882;12.530;2023-05-21T09:15:24;100365.38;;;22.47;61.14
54948;BME280;41113;41.882;12.530;2023-05-21T09:17:49;100360.34;;;22.44;61.65
54948;BME280;41113;41.882;12.530;2023-05-21T09:20:15;100362.66;;;22.41;61.58
54948;BME280;41113;41.882;12.530;2023-05-21T09:22:45;100361.03;;;22.33;61.30
54948;BME280;41113;41.882;12.530;2023-05-21T09:25:13;100355.13;;;22.36;61.22
54948;BME280;41113;41.882;12.530;2023-05-21T09:27:39;100356.75;;;22.44;60.78
54948;BME280;41113;41.882;12.530;2023-05-21T09:30:09;100353.47;;;22.60;60.47
54948;BME280;41113;41.882;12.530;2023-05-21T09:32:35;100348.91;;;22.79;59.95
54948;BME280;41113;41.882;12.530;2023-05-21T09:35:14;100348.81;;;22.92;56.84
54948;BME280;41113;41.882;12.530;2023-05-21T09:37:40;100349.81;;;22.97;57.07
54948;BME280;41113;41.882;12.530;2023-05-21T09:40:15;100352.16;;;22.94;53.68
54948;BME280;41113;41.882;12.530;2023-05-21T09:42:45;100349.66;;;22.92;54.41
54948;BME280;41113;41.882;12.530;2023-05-21T09:45:11;100350.78;;;23.03;56.01
54948;BME280;41113;41.882;12.530;2023-05-21T09:47:43;100342.81;;;23.02;53.50
54948;BME280;41113;41.882;12.530;2023-05-21T09:50:10;100345.50;;;23.26;55.34
54948;BME280;41113;41.882;12.530;2023-05-21T09:52:36;100348.72;;;23.42;54.41
54948;BME280;41113;41.882;12.530;2023-05-21T09:55:05;100352.50;;;23.41;54.67
54948;BME280;41113;41.882;12.530;2023-05-21T09:57:31;100343.53;;;23.52;55.13
54948;BME280;41113;41.882;12.530;2023-05-21T09:59:57;100343.53;;;23.52;54.66
54948;BME280;41113;41.882;12.530;2023-05-21T10:02:24;100340.63;;;23.47;54.75
54948;BME280;41113;41.882;12.530;2023-05-21T10:04:53;100341.38;;;23.54;54.52
54948;BME280;41113;41.882;12.530;2023-05-21T10:07:21;100342.91;;;23.68;54.55
54948;BME280;41113;41.882;12.530;2023-05-21T10:09:53;100343.22;;;23.78;54.27
54948;BME280;41113;41.882;12.530;2023-05-21T10:12:23;100347.78;;;23.84;54.17
54948;BME280;41113;41.882;12.530;2023-05-21T10:14:58;100351.03;;;23.93;53.87
54948;BME280;41113;41.882;12.530;2023-05-21T10:17:26;100356.16;;;23.89;54.19
54948;BME280;41113;41.882;12.530;2023-05-21T10:19:55;100349.38;;;23.92;53.38
54948;BME280;41113;41.882;12.530;2023-05-21T10:22:24;100343.41;;;23.95;53.14
54948;BME280;41113;41.882;12.530;2023-05-21T10:24:56;100335.56;;;23.99;50.74
54948;BME280;41113;41.882;12.530;2023-05-21T10:27:23;100336.84;;;23.96;52.39
54948;BME280;41113;41.882;12.530;2023-05-21T10:29:48;100343.84;;;23.62;52.06
54948;BME280;41113;41.882;12.530;2023-05-21T10:32:15;100338.38;;;23.62;53.36
54948;BME280;41113;41.882;12.530;2023-05-21T10:34:44;100334.22;;;23.71;53.50
54948;BME280;41113;41.882;12.530;2023-05-21T10:37:11;100337.88;;;23.83;53.61
54948;BME280;41113;41.882;12.530;2023-05-21T10:39:37;100336.47;;;23.93;53.11
54948;BME280;41113;41.882;12.530;2023-05-21T10:53:22;100341.00;;;24.17;46.74
54948;BME280;41113;41.882;12.530;2023-05-21T11:01:36;100329.91;;;24.24;50.80
54948;BME280;41113;41.882;12.530;2023-05-21T11:04:05;100333.38;;;24.19;50.85
54948;BME280;41113;41.882;12.530;2023-05-21T11:06:31;100334.97;;;24.38;50.67
54948;BME280;41113;41.882;12.530;2023-05-21T11:09:00;100326.75;;;24.38;50.54
54948;BME280;41113;41.882;12.530;2023-05-21T11:11:56;100331.97;;;24.28;48.30
54948;BME280;41113;41.882;12.530;2023-05-21T11:14:35;100321.22;;;24.27;49.41
54948;BME280;41113;41.882;12.530;2023-05-21T11:19:44;100331.44;;;24.08;45.39
54948;BME280;41113;41.882;12.530;2023-05-21T11:22:25;100322.66;;;23.99;48.06
54948;BME280;41113;41.882;12.530;2023-05-21T11:24:53;100320.81;;;24.11;49.87
54948;BME280;41113;41.882;12.530;2023-05-21T11:27:39;100313.78;;;24.15;48.40
54948;BME280;41113;41.882;12.530;2023-05-21T11:30:16;100307.69;;;24.13;48.96
54948;BME280;41113;41.882;12.530;2023-05-21T11:35:37;100308.66;;;24.19;50.04
54948;BME280;41113;41.882;12.530;2023-05-21T11:38:03;100306.28;;;24.23;49.80
54948;BME280;41113;41.882;12.530;2023-05-21T11:40:28;100318.25;;;24.28;50.20
54948;BME280;41113;41.882;12.530;2023-05-21T11:42:56;100307.31;;;24.40;49.90
54948;BME280;41113;41.882;12.530;2023-05-21T11:45:26;100309.91;;;24.35;49.82
54948;BME280;41113;41.882;12.530;2023-05-21T11:47:53;100302.75;;;24.34;49.73
54948;BME280;41113;41.882;12.530;2023-05-21T11:50:19;100309.69;;;24.36;49.78
54948;BME280;41113;41.882;12.530;2023-05-21T11:52:45;100303.13;;;24.37;49.15
54948;BME280;41113;41.882;12.530;2023-05-21T11:55:10;100297.63;;;24.37;50.01
54948;BME280;41113;41.882;12.530;2023-05-21T11:57:36;100300.25;;;24.32;50.02
54948;BME280;41113;41.882;12.530;2023-05-21T12:00:03;100294.75;;;24.32;50.04
54948;BME280;41113;41.882;12.530;2023-05-21T12:02:38;100291.19;;;24.32;49.94
54948;BME280;41113;41.882;12.530;2023-05-21T12:05:07;100284.63;;;24.33;49.88
54948;BME280;41113;41.882;12.530;2023-05-21T12:07:33;100291.22;;;24.43;49.60
54948;BME280;41113;41.882;12.530;2023-05-21T12:09:59;100273.19;;;24.47;49.60
54948;BME280;41113;41.882;12.530;2023-05-21T12:12:29;100278.88;;;24.34;49.71
54948;BME280;41113;41.882;12.530;2023-05-21T12:14:57;100284.84;;;24.31;49.54
54948;BME280;41113;41.882;12.530;2023-05-21T12:17:23;100280.72;;;24.40;49.28
54948;BME280;41113;41.882;12.530;2023-05-21T12:19:53;100285.72;;;24.55;48.03
54948;BME280;41113;41.882;12.530;2023-05-21T12:22:22;100291.81;;;24.57;49.65
54948;BME280;41113;41.882;12.530;2023-05-21T12:24:52;100321.06;;;24.40;50.17
54948;BME280;41113;41.882;12.530;2023-05-21T12:27:18;100333.03;;;23.67;50.31
54948;BME280;41113;41.882;12.530;2023-05-21T12:29:48;100336.63;;;23.06;52.66
54948;BME280;41113;41.882;12.530;2023-05-21T12:32:14;100347.22;;;22.78;54.17
54948;BME280;41113;41.882;12.530;2023-05-21T12:34:51;100334.38;;;22.53;55.23
54948;BME280;41113;41.882;12.530;2023-05-21T12:39:47;100329.09;;;22.27;56.74
54948;BME280;41113;41.882;12.530;2023-05-21T12:42:13;100324.91;;;22.24;57.33
54948;BME280;41113;41.882;12.530;2023-05-21T12:44:42;100341.16;;;22.19;58.09
54948;BME280;41113;41.882;12.530;2023-05-21T12:47:09;100343.13;;;22.05;58.12
54948;BME280;41113;41.882;12.530;2023-05-21T12:49:39;100346.09;;;21.97;58.14
54948;BME280;41113;41.882;12.530;2023-05-21T12:52:08;100344.63;;;21.95;59.03
54948;BME280;41113;41.882;12.530;2023-05-21T12:54:36;100337.88;;;21.97;59.16
54948;BME280;41113;41.882;12.530;2023-05-21T12:57:22;100343.97;;;21.99;59.65
54948;BME280;41113;41.882;12.530;2023-05-21T12:59:53;100351.72;;;22.02;60.15
54948;BME280;41113;41.882;12.530;2023-05-21T13:02:25;100357.91;;;21.91;60.94
54948;BME280;41113;41.882;12.530;2023-05-21T13:05:02;100357.16;;;21.71;62.56
54948;BME280;41113;41.882;12.530;2023-05-21T13:07:32;100367.09;;;21.59;62.52